sensor_id;sensor_type;location;lat;lon;timestamp;temperature;humidity
19365;DHT22;9818;48.382;10.850;2024-01-15T00:01:31;19.20;99.90
19365;DHT22;9818;48.382;10.850;2024-01-15T00:04:03;19.30;99.90
19365;DHT22;9818;48.382;10.850;2024-01-15T00:06:32;19.40;99.90
19365;DHT22;9818;48.382;10.850;2024-01-15T00:09:00;19.30;99.90
19365;DHT22;9818;48.382;10.850;2024-01-15T00:11:29;19.30;99.90
19365;DHT22;9818;48.382;10.850;2024-01-15T00:13:58;19.30;99.90
19365;DHT22;9818;48.382;10.850;2024-01-15T00:16:26;19.40;99.90
19365;DHT22;9818;48.382;10.850;2024-01-15T00:18:55;19.40;99.90
19365;DHT22;9818;48.382;10.850;2024-01-15T00:21:26;19.40;99.90
19365;DHT22;9818;48.382;10.850;2024-01-15T00:23:55;19.30;99.90
19365;DHT22;9818;48.382;10.850;2024-01-15T00:26:24;19.30;99.90
19365;DHT22;9818;48.382;10.850;2024-01-15T00:28:52;19.30;99.90
19365;DHT22;9818;48.382;10.850;2024-01-15T00:31:21;19.40;99.90
19365;DHT22;9818;48.382;10.850;2024-01-15T00:33:50;19.40;99.90
19365;DHT22;9818;48.382;10.850;2024-01-15T00:36:18;19.40;99.90
19365;DHT22;9818;48.382;10.850;2024-01-15T00:38:50;19.40;99.90
19365;DHT22;9818;48.382;10.850;2024-01-15T00:41:18;19.40;99.90
19365;DHT22;9818;48.382;10.850;2024-01-15T00:43:47;19.40;99.90
19365;DHT22;9818;48.382;10.850;2024-01-15T00:46:16;19.40;91.10
19365;DHT22;9818;48.382;10.850;2024-01-15T00:48:45;19.40;97.40
19365;DHT22;9818;48.382;10.850;2024-01-15T00:51:14;19.40;99.90
19365;DHT22;9818;48.382;10.850;2024-01-15T00:53:43;19.40;99.90
19365;DHT22;9818;48.382;10.850;2024-01-15T00:56:14;19.40;99.90
19365;DHT22;9818;48.382;10.850;2024-01-15T00:58:43;19.40;71.70
19365;DHT22;9818;48.382;10.850;2024-01-15T01:01:11;19.50;69.40
19365;DHT22;9818;48.382;10.850;2024-01-15T01:03:40;19.50;76.40
19365;DHT22;9818;48.382;10.850;2024-01-15T01:06:09;19.40;93.80
19365;DHT22;9818;48.382;10.850;2024-01-15T01:08:38;19.40;99.90
19365;DHT22;9818;48.382;10.850;2024-01-15T01:11:07;19.40;99.90
19365;DHT22;9818;48.382;10.850;2024-01-15T01:13:38;19.40;99.90
19365;DHT22;9818;48.382;10.850;2024-01-15T01:16:07;19.40;99.90
19365;DHT22;9818;48.382;10.850;2024-01-15T01:18:36;19.40;96.70
19365;DHT22;9818;48.382;10.850;2024-01-15T01:21:05;19.40;86.20
19365;DHT22;9818;48.382;10.850;2024-01-15T01:23:33;19.40;90.90
19365;DHT22;9818;48.382;10.850;2024-01-15T01:26:02;19.40;72.90
19365;DHT22;9818;48.382;10.850;2024-01-15T01:28:31;19.40;70.50
19365;DHT22;9818;48.382;10.850;2024-01-15T01:31:02;19.40;61.80
19365;DHT22;9818;48.382;10.850;2024-01-15T01:33:31;19.40;85.40
19365;DHT22;9818;48.382;10.850;2024-01-15T01:36:00;19.40;85.50
19365;DHT22;9818;48.382;10.850;2024-01-15T01:38:29;19.40;83.40
19365;DHT22;9818;48.382;10.850;2024-01-15T01:40:57;19.40;93.30
19365;DHT22;9818;48.382;10.850;2024-01-15T01:43:26;19.40;99.90
19365;DHT22;9818;48.382;10.850;2024-01-15T01:45:56;19.40;97.10
19365;DHT22;9818;48.382;10.850;2024-01-15T01:48:27;19.40;95.50
19365;DHT22;9818;48.382;10.850;2024-01-15T01:50:58;19.40;99.90
19365;DHT22;9818;48.382;10.850;2024-01-15T01:53:28;19.40;99.90
19365;DHT22;9818;48.382;10.850;2024-01-15T01:55:57;19.40;99.50
19365;DHT22;9818;48.382;10.850;2024-01-15T01:58:29;19.40;21.50
19365;DHT22;9818;48.382;10.850;2024-01-15T02:00:58;19.40;39.40
19365;DHT22;9818;48.382;10.850;2024-01-15T02:03:30;19.30;30.60
19365;DHT22;9818;48.382;10.850;2024-01-15T02:05:59;19.40;41.20
19365;DHT22;9818;48.382;10.850;2024-01-15T02:08:29;19.40;33.90
19365;DHT22;9818;48.382;10.850;2024-01-15T02:10:58;19.40;29.40
19365;DHT22;9818;48.382;10.850;2024-01-15T02:13:27;19.40;48.40
19365;DHT22;9818;48.382;10.850;2024-01-15T02:15:56;19.40;35.10
19365;DHT22;9818;48.382;10.850;2024-01-15T02:18:24;19.40;41.40
19365;DHT22;9818;48.382;10.850;2024-01-15T02:20:56;19.40;39.70
19365;DHT22;9818;48.382;10.850;2024-01-15T02:23:27;19.40;40.80
19365;DHT22;9818;48.382;10.850;2024-01-15T02:25:56;19.40;42.80
19365;DHT22;9818;48.382;10.850;2024-01-15T02:28:24;19.40;43.20
19365;DHT22;9818;48.382;10.850;2024-01-15T02:30:53;19.40;24.80
19365;DHT22;9818;48.382;10.850;2024-01-15T02:33:22;19.40;25.40
19365;DHT22;9818;48.382;10.850;2024-01-15T02:35:51;19.50;27.30
19365;DHT22;9818;48.382;10.850;2024-01-15T02:38:19;19.40;18.50
19365;DHT22;9818;48.382;10.850;2024-01-15T02:40:51;19.40;14.80
19365;DHT22;9818;48.382;10.850;2024-01-15T02:43:19;19.40;11.70
19365;DHT22;9818;48.382;10.850;2024-01-15T02:45:48;19.40;1.00
19365;DHT22;9818;48.382;10.850;2024-01-15T02:48:17;19.40;1.00
19365;DHT22;9818;48.382;10.850;2024-01-15T02:50:45;19.40;1.20
19365;DHT22;9818;48.382;10.850;2024-01-15T02:53:14;19.40;1.00
19365;DHT22;9818;48.382;10.850;2024-01-15T02:55:43;19.40;9.40
19365;DHT22;9818;48.382;10.850;2024-01-15T02:58:14;19.40;1.60
19365;DHT22;9818;48.382;10.850;2024-01-15T03:00:43;19.50;1.00
19365;DHT22;9818;48.382;10.850;2024-01-15T03:03:12;19.50;1.00
19365;DHT22;9818;48.382;10.850;2024-01-15T03:05:40;19.40;7.40
19365;DHT22;9818;48.382;10.850;2024-01-15T03:08:09;19.40;16.80
19365;DHT22;9818;48.382;10.850;2024-01-15T03:10:38;19.50;1.00
19365;DHT22;9818;48.382;10.850;2024-01-15T03:13:06;19.50;12.70
19365;DHT22;9818;48.382;10.850;2024-01-15T03:15:38;19.50;43.10
19365;DHT22;9818;48.382;10.850;2024-01-15T03:18:06;19.50;43.90
19365;DHT22;9818;48.382;10.850;2024-01-15T03:20:35;19.50;42.50
19365;DHT22;9818;48.382;10.850;2024-01-15T03:23:04;19.50;19.50
19365;DHT22;9818;48.382;10.850;2024-01-15T03:25:32;19.50;7.30
19365;DHT22;9818;48.382;10.850;2024-01-15T03:28:01;19.50;18.40
19365;DHT22;9818;48.382;10.850;2024-01-15T03:30:30;19.50;65.00
19365;DHT22;9818;48.382;10.850;2024-01-15T03:33:01;19.50;18.70
19365;DHT22;9818;48.382;10.850;2024-01-15T03:35:30;19.50;1.00
19365;DHT22;9818;48.382;10.850;2024-01-15T03:37:58;19.40;1.00
19365;DHT22;9818;48.382;10.850;2024-01-15T03:40:27;19.40;1.00
19365;DHT22;9818;48.382;10.850;2024-01-15T03:42:56;19.30;1.00
19365;DHT22;9818;48.382;10.850;2024-01-15T03:45:25;19.30;1.00
19365;DHT22;9818;48.382;10.850;2024-01-15T03:47:53;19.20;1.00
19365;DHT22;9818;48.382;10.850;2024-01-15T03:50:25;19.20;1.00
19365;DHT22;9818;48.382;10.850;2024-01-15T03:52:53;19.20;1.00
19365;DHT22;9818;48.382;10.850;2024-01-15T03:55:22;19.20;1.00
19365;DHT22;9818;48.382;10.850;2024-01-15T03:57:51;19.10;1.00
19365;DHT22;9818;48.382;10.850;2024-01-15T04:00:19;19.10;1.00
19365;DHT22;9818;48.382;10.850;2024-01-15T04:02:48;19.00;1.00
19365;DHT22;9818;48.382;10.850;2024-01-15T04:05:17;19.00;1.00
19365;DHT22;9818;48.382;10.850;2024-01-15T04:07:48;19.00;1.00
19365;DHT22;9818;48.382;10.850;2024-01-15T04:10:17;18.90;1.00
19365;DHT22;9818;48.382;10.850;2024-01-15T04:12:46;18.90;1.00
19365;DHT22;9818;48.382;10.850;2024-01-15T04:15:15;18.90;1.00
19365;DHT22;9818;48.382;10.850;2024-01-15T04:17:44;18.80;1.00
19365;DHT22;9818;48.382;10.850;2024-01-15T04:20:12;18.80;1.00
19365;DHT22;9818;48.382;10.850;2024-01-15T04:22:41;18.80;1.00
19365;DHT22;9818;48.382;10.850;2024-01-15T04:25:12;18.80;1.00
19365;DHT22;9818;48.382;10.850;2024-01-15T04:27:41;18.70;1.00
19365;DHT22;9818;48.382;10.850;2024-01-15T04:30:10;18.70;1.00
19365;DHT22;9818;48.382;10.850;2024-01-15T04:32:39;18.70;1.00
19365;DHT22;9818;48.382;10.850;2024-01-15T04:35:08;18.70;1.00
19365;DHT22;9818;48.382;10.850;2024-01-15T04:37:39;18.70;1.00
19365;DHT22;9818;48.382;10.850;2024-01-15T04:40:09;18.60;1.00
19365;DHT22;9818;48.382;10.850;2024-01-15T04:42:40;18.70;1.00
19365;DHT22;9818;48.382;10.850;2024-01-15T04:45:11;18.60;1.00
19365;DHT22;9818;48.382;10.850;2024-01-15T04:47:40;18.60;1.00
19365;DHT22;9818;48.382;10.850;2024-01-15T04:50:09;18.60;1.00
19365;DHT22;9818;48.382;10.850;2024-01-15T04:52:39;18.60;1.00
19365;DHT22;9818;48.382;10.850;2024-01-15T04:55:08;18.50;1.00
19365;DHT22;9818;48.382;10.850;2024-01-15T04:57:36;18.60;1.00
19365;DHT22;9818;48.382;10.850;2024-01-15T05:00:09;18.50;1.00
19365;DHT22;9818;48.382;10.850;2024-01-15T05:02:38;18.50;1.00
19365;DHT22;9818;48.382;10.850;2024-01-15T05:05:07;18.50;1.00
19365;DHT22;9818;48.382;10.850;2024-01-15T05:07:36;18.50;1.00
19365;DHT22;9818;48.382;10.850;2024-01-15T05:10:06;18.50;1.00
19365;DHT22;9818;48.382;10.850;2024-01-15T05:12:35;18.50;1.00
19365;DHT22;9818;48.382;10.850;2024-01-15T05:15:07;18.50;1.00
19365;DHT22;9818;48.382;10.850;2024-01-15T05:17:37;18.40;1.00
19365;DHT22;9818;48.382;10.850;2024-01-15T05:20:06;18.40;1.00
19365;DHT22;9818;48.382;10.850;2024-01-15T05:22:35;18.40;1.00
19365;DHT22;9818;48.382;10.850;2024-01-15T05:25:04;18.40;1.00
19365;DHT22;9818;48.382;10.850;2024-01-15T05:27:33;18.40;1.00
19365;DHT22;9818;48.382;10.850;2024-01-15T05:30:02;18.40;1.00
19365;DHT22;9818;48.382;10.850;2024-01-15T05:32:34;18.40;1.00
19365;DHT22;9818;48.382;10.850;2024-01-15T05:35:03;18.40;1.00
19365;DHT22;9818;48.382;10.850;2024-01-15T05:37:32;18.30;1.00
19365;DHT22;9818;48.382;10.850;2024-01-15T05:40:00;18.40;1.00
19365;DHT22;9818;48.382;10.850;2024-01-15T05:42:30;18.40;1.00
19365;DHT22;9818;48.382;10.850;2024-01-15T05:44:58;18.30;1.00
19365;DHT22;9818;48.382;10.850;2024-01-15T05:47:29;18.30;1.00
19365;DHT22;9818;48.382;10.850;2024-01-15T05:50:01;18.30;1.00
19365;DHT22;9818;48.382;10.850;2024-01-15T05:52:30;18.30;1.00
19365;DHT22;9818;48.382;10.850;2024-01-15T05:54:59;18.30;1.00
19365;DHT22;9818;48.382;10.850;2024-01-15T05:57:28;18.30;1.00
19365;DHT22;9818;48.382;10.850;2024-01-15T05:59:56;18.30;1.00
19365;DHT22;9818;48.382;10.850;2024-01-15T06:02:25;18.30;1.00
19365;DHT22;9818;48.382;10.850;2024-01-15T06:04:54;18.30;1.00
19365;DHT22;9818;48.382;10.850;2024-01-15T06:07:25;18.30;1.00
19365;DHT22;9818;48.382;10.850;2024-01-15T06:09:54;18.30;1.00
19365;DHT22;9818;48.382;10.850;2024-01-15T06:12:23;18.30;1.00
19365;DHT22;9818;48.382;10.850;2024-01-15T06:14:53;18.20;1.00
19365;DHT22;9818;48.382;10.850;2024-01-15T06:17:22;18.30;1.00
19365;DHT22;9818;48.382;10.850;2024-01-15T06:19:51;18.20;1.00
19365;DHT22;9818;48.382;10.850;2024-01-15T06:22:19;18.30;1.00
19365;DHT22;9818;48.382;10.850;2024-01-15T06:24:50;18.20;1.00
19365;DHT22;9818;48.382;10.850;2024-01-15T06:27:19;18.20;1.00
19365;DHT22;9818;48.382;10.850;2024-01-15T06:29:48;18.20;1.00
19365;DHT22;9818;48.382;10.850;2024-01-15T06:32:16;18.20;1.00
19365;DHT22;9818;48.382;10.850;2024-01-15T06:34:45;18.20;1.00
19365;DHT22;9818;48.382;10.850;2024-01-15T06:37:14;18.20;1.00
19365;DHT22;9818;48.382;10.850;2024-01-15T06:39:44;18.20;1.00
19365;DHT22;9818;48.382;10.850;2024-01-15T06:42:15;18.20;1.00
19365;DHT22;9818;48.382;10.850;2024-01-15T06:44:44;18.20;1.00
19365;DHT22;9818;48.382;10.850;2024-01-15T06:47:13;18.20;1.00
19365;DHT22;9818;48.382;10.850;2024-01-15T06:49:43;18.20;1.00
19365;DHT22;9818;48.382;10.850;2024-01-15T06:52:11;18.20;1.00
19365;DHT22;9818;48.382;10.850;2024-01-15T06:54:40;18.20;1.00
19365;DHT22;9818;48.382;10.850;2024-01-15T06:57:09;18.20;1.00
19365;DHT22;9818;48.382;10.850;2024-01-15T06:59:40;18.20;1.00
19365;DHT22;9818;48.382;10.850;2024-01-15T07:02:09;18.20;1.00
19365;DHT22;9818;48.382;10.850;2024-01-15T07:04:38;18.20;1.00
19365;DHT22;9818;48.382;10.850;2024-01-15T07:07:07;18.20;1.00
19365;DHT22;9818;48.382;10.850;2024-01-15T07:09:35;18.20;1.00
19365;DHT22;9818;48.382;10.850;2024-01-15T07:12:04;18.20;1.00
19365;DHT22;9818;48.382;10.850;2024-01-15T07:14:33;18.20;1.00
19365;DHT22;9818;48.382;10.850;2024-01-15T07:17:04;18.20;1.00
19365;DHT22;9818;48.382;10.850;2024-01-15T07:19:33;18.20;1.00
19365;DHT22;9818;48.382;10.850;2024-01-15T07:22:02;18.20;1.00
19365;DHT22;9818;48.382;10.850;2024-01-15T07:24:31;18.20;1.00
19365;DHT22;9818;48.382;10.850;2024-01-15T07:26:59;18.20;1.00
19365;DHT22;9818;48.382;10.850;2024-01-15T07:29:30;18.20;1.00
19365;DHT22;9818;48.382;10.850;2024-01-15T07:31:59;18.20;1.00
19365;DHT22;9818;48.382;10.850;2024-01-15T07:34:30;18.20;1.00
19365;DHT22;9818;48.382;10.850;2024-01-15T07:36:59;18.20;1.00
19365;DHT22;9818;48.382;10.850;2024-01-15T07:39:28;18.20;1.00
19365;DHT22;9818;48.382;10.850;2024-01-15T07:41:57;18.20;1.00
19365;DHT22;9818;48.382;10.850;2024-01-15T07:44:25;18.20;1.00
19365;DHT22;9818;48.382;10.850;2024-01-15T07:46:54;18.20;1.00
19365;DHT22;9818;48.382;10.850;2024-01-15T07:49:23;18.20;1.00
19365;DHT22;9818;48.382;10.850;2024-01-15T07:51:54;18.20;1.00
19365;DHT22;9818;48.382;10.850;2024-01-15T07:54:23;18.20;1.00
19365;DHT22;9818;48.382;10.850;2024-01-15T07:56:55;18.20;1.00
19365;DHT22;9818;48.382;10.850;2024-01-15T07:59:24;18.20;1.00
19365;DHT22;9818;48.382;10.850;2024-01-15T08:01:53;18.20;1.00
19365;DHT22;9818;48.382;10.850;2024-01-15T08:04:22;18.20;1.00
19365;DHT22;9818;48.382;10.850;2024-01-15T08:06:51;18.20;1.00
19365;DHT22;9818;48.382;10.850;2024-01-15T08:09:22;18.20;1.00
19365;DHT22;9818;48.382;10.850;2024-01-15T08:11:51;18.20;1.00
19365;DHT22;9818;48.382;10.850;2024-01-15T08:14:19;18.20;1.00
19365;DHT22;9818;48.382;10.850;2024-01-15T08:16:48;18.20;1.00
19365;DHT22;9818;48.382;10.850;2024-01-15T08:19:17;18.20;1.00
19365;DHT22;9818;48.382;10.850;2024-01-15T08:21:45;18.20;1.00
19365;DHT22;9818;48.382;10.850;2024-01-15T08:24:15;18.20;1.00
19365;DHT22;9818;48.382;10.850;2024-01-15T08:26:46;18.20;1.00
19365;DHT22;9818;48.382;10.850;2024-01-15T08:29:17;18.20;1.00
19365;DHT22;9818;48.382;10.850;2024-01-15T08:31:47;18.20;1.00
19365;DHT22;9818;48.382;10.850;2024-01-15T08:34:15;18.20;1.00
19365;DHT22;9818;48.382;10.850;2024-01-15T08:36:45;18.20;1.00
19365;DHT22;9818;48.382;10.850;2024-01-15T08:39:13;18.20;1.00
19365;DHT22;9818;48.382;10.850;2024-01-15T08:41:42;18.20;1.00
19365;DHT22;9818;48.382;10.850;2024-01-15T08:44:14;18.20;1.00
19365;DHT22;9818;48.382;10.850;2024-01-15T08:46:43;18.30;1.00
19365;DHT22;9818;48.382;10.850;2024-01-15T08:49:12;18.30;1.00
19365;DHT22;9818;48.382;10.850;2024-01-15T08:51:41;18.20;1.00
19365;DHT22;9818;48.382;10.850;2024-01-15T08:54:09;18.20;1.00
19365;DHT22;9818;48.382;10.850;2024-01-15T08:56:38;18.30;1.00
19365;DHT22;9818;48.382;10.850;2024-01-15T08:59:07;18.30;1.00
19365;DHT22;9818;48.382;10.850;2024-01-15T09:01:41;18.30;1.00
19365;DHT22;9818;48.382;10.850;2024-01-15T09:04:09;18.20;1.00
19365;DHT22;9818;48.382;10.850;2024-01-15T09:06:38;18.20;1.00
19365;DHT22;9818;48.382;10.850;2024-01-15T09:09:07;18.30;1.00
19365;DHT22;9818;48.382;10.850;2024-01-15T09:11:36;18.30;1.00
19365;DHT22;9818;48.382;10.850;2024-01-15T09:14:04;18.30;1.00
19365;DHT22;9818;48.382;10.850;2024-01-15T09:16:34;18.30;1.00
19365;DHT22;9818;48.382;10.850;2024-01-15T09:19:05;18.20;1.00
19365;DHT22;9818;48.382;10.850;2024-01-15T09:21:34;18.20;1.00
19365;DHT22;9818;48.382;10.850;2024-01-15T09:24:03;18.20;1.00
19365;DHT22;9818;48.382;10.850;2024-01-15T09:26:32;18.20;1.00
19365;DHT22;9818;48.382;10.850;2024-01-15T09:29:01;18.20;1.00
19365;DHT22;9818;48.382;10.850;2024-01-15T09:31:29;18.20;1.00
19365;DHT22;9818;48.382;10.850;2024-01-15T09:33:58;18.20;1.00
19365;DHT22;9818;48.382;10.850;2024-01-15T09:36:30;18.20;1.00
19365;DHT22;9818;48.382;10.850;2024-01-15T09:38:59;18.10;1.00
19365;DHT22;9818;48.382;10.850;2024-01-15T09:41:28;18.10;1.00
19365;DHT22;9818;48.382;10.850;2024-01-15T09:43:56;18.10;1.00
19365;DHT22;9818;48.382;10.850;2024-01-15T09:46:25;18.10;1.00
19365;DHT22;9818;48.382;10.850;2024-01-15T09:48:54;18.00;1.00
19365;DHT22;9818;48.382;10.850;2024-01-15T09:51:24;18.10;1.00
19365;DHT22;9818;48.382;10.850;2024-01-15T09:53:55;18.10;1.00
19365;DHT22;9818;48.382;10.850;2024-01-15T09:56:24;18.00;1.00
19365;DHT22;9818;48.382;10.850;2024-01-15T09:58:54;18.10;1.00
19365;DHT22;9818;48.382;10.850;2024-01-15T10:01:23;18.00;1.00
19365;DHT22;9818;48.382;10.850;2024-01-15T10:03:52;18.00;1.00
19365;DHT22;9818;48.382;10.850;2024-01-15T10:06:21;18.10;1.00
19365;DHT22;9818;48.382;10.850;2024-01-15T10:08:51;18.00;1.00
19365;DHT22;9818;48.382;10.850;2024-01-15T10:11:22;18.10;1.00
19365;DHT22;9818;48.382;10.850;2024-01-15T10:13:51;18.10;1.00
19365;DHT22;9818;48.382;10.850;2024-01-15T10:16:23;18.10;1.00
19365;DHT22;9818;48.382;10.850;2024-01-15T10:18:51;18.10;1.00
19365;DHT22;9818;48.382;10.850;2024-01-15T10:21:20;18.10;1.00
19365;DHT22;9818;48.382;10.850;2024-01-15T10:23:49;18.20;1.00
19365;DHT22;9818;48.382;10.850;2024-01-15T10:26:18;18.20;1.00
19365;DHT22;9818;48.382;10.850;2024-01-15T10:28:50;18.20;1.00
19365;DHT22;9818;48.382;10.850;2024-01-15T10:31:19;18.20;1.00
19365;DHT22;9818;48.382;10.850;2024-01-15T10:33:48;18.20;1.00
19365;DHT22;9818;48.382;10.850;2024-01-15T10:36:17;18.30;1.00
19365;DHT22;9818;48.382;10.850;2024-01-15T10:38:46;18.20;1.00
19365;DHT22;9818;48.382;10.850;2024-01-15T10:41:15;18.20;1.00
19365;DHT22;9818;48.382;10.850;2024-01-15T10:43:44;18.20;1.00
19365;DHT22;9818;48.382;10.850;2024-01-15T10:46:15;18.20;1.00
19365;DHT22;9818;48.382;10.850;2024-01-15T10:48:44;18.20;1.00
19365;DHT22;9818;48.382;10.850;2024-01-15T10:51:13;18.20;1.00
19365;DHT22;9818;48.382;10.850;2024-01-15T10:53:43;18.20;1.00
19365;DHT22;9818;48.382;10.850;2024-01-15T10:56:13;18.10;1.00
19365;DHT22;9818;48.382;10.850;2024-01-15T10:58:39;18.10;1.00
19365;DHT22;9818;48.382;10.850;2024-01-15T11:01:08;18.10;1.00
19365;DHT22;9818;48.382;10.850;2024-01-15T11:03:41;18.20;1.00
19365;DHT22;9818;48.382;10.850;2024-01-15T11:06:16;18.20;14.40
19365;DHT22;9818;48.382;10.850;2024-01-15T11:08:47;18.20;1.00
19365;DHT22;9818;48.382;10.850;2024-01-15T11:11:16;18.20;1.00
19365;DHT22;9818;48.382;10.850;2024-01-15T11:13:47;18.20;1.00
19365;DHT22;9818;48.382;10.850;2024-01-15T11:16:17;18.20;1.00
19365;DHT22;9818;48.382;10.850;2024-01-15T11:19:04;18.20;1.00
19365;DHT22;9818;48.382;10.850;2024-01-15T11:21:42;18.10;1.00
19365;DHT22;9818;48.382;10.850;2024-01-15T11:24:11;18.20;1.00
19365;DHT22;9818;48.382;10.850;2024-01-15T11:26:59;18.20;1.00
19365;DHT22;9818;48.382;10.850;2024-01-15T11:29:32;18.20;1.00
19365;DHT22;9818;48.382;10.850;2024-01-15T11:32:03;18.20;1.00
19365;DHT22;9818;48.382;10.850;2024-01-15T11:34:57;18.20;1.00
19365;DHT22;9818;48.382;10.850;2024-01-15T11:37:28;18.20;1.00
19365;DHT22;9818;48.382;10.850;2024-01-15T11:40:01;18.20;1.00
19365;DHT22;9818;48.382;10.850;2024-01-15T11:42:36;18.20;16.40
19365;DHT22;9818;48.382;10.850;2024-01-15T11:45:05;18.20;1.90
19365;DHT22;9818;48.382;10.850;2024-01-15T11:47:59;18.20;43.50
19365;DHT22;9818;48.382;10.850;2024-01-15T11:50:35;18.20;44.60
19365;DHT22;9818;48.382;10.850;2024-01-15T11:53:10;18.20;67.40
19365;DHT22;9818;48.382;10.850;2024-01-15T11:55:44;18.20;99.90
19365;DHT22;9818;48.382;10.850;2024-01-15T11:58:14;18.20;99.90
19365;DHT22;9818;48.382;10.850;2024-01-15T12:00:45;18.20;99.90
19365;DHT22;9818;48.382;10.850;2024-01-15T12:03:15;18.20;99.90
19365;DHT22;9818;48.382;10.850;2024-01-15T12:05:46;18.20;99.90
19365;DHT22;9818;48.382;10.850;2024-01-15T12:08:21;18.20;99.90
19365;DHT22;9818;48.382;10.850;2024-01-15T12:10:49;18.30;99.90
19365;DHT22;9818;48.382;10.850;2024-01-15T12:13:19;18.30;99.90
19365;DHT22;9818;48.382;10.850;2024-01-15T12:15:49;18.40;99.90
19365;DHT22;9818;48.382;10.850;2024-01-15T12:18:18;18.40;99.90
19365;DHT22;9818;48.382;10.850;2024-01-15T12:20:49;18.50;99.90
19365;DHT22;9818;48.382;10.850;2024-01-15T12:23:19;18.50;99.90
19365;DHT22;9818;48.382;10.850;2024-01-15T12:25:48;18.50;99.90
19365;DHT22;9818;48.382;10.850;2024-01-15T12:28:17;18.60;99.90
19365;DHT22;9818;48.382;10.850;2024-01-15T12:30:47;18.60;99.90
19365;DHT22;9818;48.382;10.850;2024-01-15T12:33:18;18.60;99.90
19365;DHT22;9818;48.382;10.850;2024-01-15T12:35:53;18.70;99.90
19365;DHT22;9818;48.382;10.850;2024-01-15T12:38:21;18.70;99.90
19365;DHT22;9818;48.382;10.850;2024-01-15T12:40:51;18.80;99.90
19365;DHT22;9818;48.382;10.850;2024-01-15T12:43:20;18.80;99.90
19365;DHT22;9818;48.382;10.850;2024-01-15T12:45:49;18.80;99.90
19365;DHT22;9818;48.382;10.850;2024-01-15T12:48:19;18.80;99.90
19365;DHT22;9818;48.382;10.850;2024-01-15T12:50:52;18.80;99.90
19365;DHT22;9818;48.382;10.850;2024-01-15T12:53:21;18.80;99.90
19365;DHT22;9818;48.382;10.850;2024-01-15T12:55:49;18.90;99.90
19365;DHT22;9818;48.382;10.850;2024-01-15T12:58:18;18.90;99.90
19365;DHT22;9818;48.382;10.850;2024-01-15T13:00:47;18.90;99.90
19365;DHT22;9818;48.382;10.850;2024-01-15T13:03:16;18.90;99.90
19365;DHT22;9818;48.382;10.850;2024-01-15T13:05:45;18.90;99.90
19365;DHT22;9818;48.382;10.850;2024-01-15T13:08:17;18.90;97.40
19365;DHT22;9818;48.382;10.850;2024-01-15T13:10:45;18.90;69.70
19365;DHT22;9818;48.382;10.850;2024-01-15T13:13:14;19.00;54.20
19365;DHT22;9818;48.382;10.850;2024-01-15T13:15:43;19.00;57.10
19365;DHT22;9818;48.382;10.850;2024-01-15T13:18:11;19.00;38.60
19365;DHT22;9818;48.382;10.850;2024-01-15T13:20:41;19.00;34.90
19365;DHT22;9818;48.382;10.850;2024-01-15T13:23:11;19.00;48.10
19365;DHT22;9818;48.382;10.850;2024-01-15T13:25:42;19.00;49.50
19365;DHT22;9818;48.382;10.850;2024-01-15T13:28:11;19.00;46.00
19365;DHT22;9818;48.382;10.850;2024-01-15T13:30:40;19.00;92.20
19365;DHT22;9818;48.382;10.850;2024-01-15T13:33:09;19.10;47.10
19365;DHT22;9818;48.382;10.850;2024-01-15T13:35:39;19.10;99.90
19365;DHT22;9818;48.382;10.850;2024-01-15T13:38:07;19.10;59.10
19365;DHT22;9818;48.382;10.850;2024-01-15T13:40:36;19.10;85.80
19365;DHT22;9818;48.382;10.850;2024-01-15T13:43:08;19.10;48.70
19365;DHT22;9818;48.382;10.850;2024-01-15T13:45:36;19.10;70.80
19365;DHT22;9818;48.382;10.850;2024-01-15T13:48:06;19.10;24.10
19365;DHT22;9818;48.382;10.850;2024-01-15T13:50:35;19.10;72.20
19365;DHT22;9818;48.382;10.850;2024-01-15T13:53:04;19.10;85.60
19365;DHT22;9818;48.382;10.850;2024-01-15T13:55:34;19.10;16.00
19365;DHT22;9818;48.382;10.850;2024-01-15T13:58:03;19.10;37.10
19365;DHT22;9818;48.382;10.850;2024-01-15T14:00:35;19.10;8.70
19365;DHT22;9818;48.382;10.850;2024-01-15T14:03:05;19.10;53.00
19365;DHT22;9818;48.382;10.850;2024-01-15T14:05:34;19.10;1.00
19365;DHT22;9818;48.382;10.850;2024-01-15T14:08:02;19.10;1.00
19365;DHT22;9818;48.382;10.850;2024-01-15T14:10:31;19.20;1.00
19365;DHT22;9818;48.382;10.850;2024-01-15T14:13:00;19.20;1.00
19365;DHT22;9818;48.382;10.850;2024-01-15T14:15:29;19.20;1.00
19365;DHT22;9818;48.382;10.850;2024-01-15T14:18:00;19.20;1.00
19365;DHT22;9818;48.382;10.850;2024-01-15T14:20:29;19.20;1.00
19365;DHT22;9818;48.382;10.850;2024-01-15T14:22:58;19.20;1.00
19365;DHT22;9818;48.382;10.850;2024-01-15T14:25:27;19.10;1.00
19365;DHT22;9818;48.382;10.850;2024-01-15T14:27:56;19.20;1.00
19365;DHT22;9818;48.382;10.850;2024-01-15T14:30:24;19.20;1.80
19365;DHT22;9818;48.382;10.850;2024-01-15T14:32:53;19.10;1.00
19365;DHT22;9818;48.382;10.850;2024-01-15T14:35:24;19.20;1.00
19365;DHT22;9818;48.382;10.850;2024-01-15T14:37:53;19.10;1.00
19365;DHT22;9818;48.382;10.850;2024-01-15T14:40:24;19.10;1.00
19365;DHT22;9818;48.382;10.850;2024-01-15T14:42:53;19.10;1.00
19365;DHT22;9818;48.382;10.850;2024-01-15T14:45:22;19.00;99.90
19365;DHT22;9818;48.382;10.850;2024-01-15T14:47:52;18.80;1.00
19365;DHT22;9818;48.382;10.850;2024-01-15T14:50:25;18.60;99.90
19365;DHT22;9818;48.382;10.850;2024-01-15T14:52:54;18.70;1.00
19365;DHT22;9818;48.382;10.850;2024-01-15T14:55:22;18.90;1.00
19365;DHT22;9818;48.382;10.850;2024-01-15T14:57:52;19.00;1.00
19365;DHT22;9818;48.382;10.850;2024-01-15T15:00:18;19.00;1.00
19365;DHT22;9818;48.382;10.850;2024-01-15T15:02:48;19.00;1.00
19365;DHT22;9818;48.382;10.850;2024-01-15T15:05:17;18.80;1.00
19365;DHT22;9818;48.382;10.850;2024-01-15T15:07:48;18.90;1.00
19365;DHT22;9818;48.382;10.850;2024-01-15T15:10:17;19.00;1.00
19365;DHT22;9818;48.382;10.850;2024-01-15T15:12:45;19.00;1.00
19365;DHT22;9818;48.382;10.850;2024-01-15T15:15:14;19.00;1.00
19365;DHT22;9818;48.382;10.850;2024-01-15T15:17:43;19.00;1.00
19365;DHT22;9818;48.382;10.850;2024-01-15T15:20:12;19.00;1.00
19365;DHT22;9818;48.382;10.850;2024-01-15T15:22:41;19.00;1.00
19365;DHT22;9818;48.382;10.850;2024-01-15T15:25:13;19.00;1.00
19365;DHT22;9818;48.382;10.850;2024-01-15T15:27:41;19.00;1.00
19365;DHT22;9818;48.382;10.850;2024-01-15T15:30:10;19.00;1.00
19365;DHT22;9818;48.382;10.850;2024-01-15T15:32:39;19.00;1.00
19365;DHT22;9818;48.382;10.850;2024-01-15T15:35:08;19.00;1.00
19365;DHT22;9818;48.382;10.850;2024-01-15T15:37:37;19.10;1.00
19365;DHT22;9818;48.382;10.850;2024-01-15T15:40:08;19.10;1.00
19365;DHT22;9818;48.382;10.850;2024-01-15T15:42:45;19.00;1.00
19365;DHT22;9818;48.382;10.850;2024-01-15T15:45:14;19.00;1.00
19365;DHT22;9818;48.382;10.850;2024-01-15T15:47:42;19.00;1.00
19365;DHT22;9818;48.382;10.850;2024-01-15T15:50:11;19.00;1.00
19365;DHT22;9818;48.382;10.850;2024-01-15T15:52:40;19.00;1.00
19365;DHT22;9818;48.382;10.850;2024-01-15T15:55:08;19.00;1.00